Impacts TAF Board INFO
FOR SITUATIONAL AWARENESS. NOT TO BE USED FOR FLIGHT PLANNING PURPOSES.
IDs:

KIAH - Houston/Bush Intl, TX, US

Issued at 1138 UTC 18 Dec 2017
Updated at 1231 UTC 18 Dec 2017
Potential Impact None Slight Moderate High
Time<<19/13Z 19/14Z 19/15Z 19/16Z 19/17Z 19/18Z 19/19Z 19/20Z 19/21Z 19/22Z 19/23Z 20/00Z 20/01Z
Type PRVL PRVL PRVL PRVL PRVL
VIS 2 2 6 6 6
CIG 7 7 10 10 10
Cover OVC OVC BKN BKN BKN
FltCat IFR IFR MVFR MVFR MVFR
WX -DZ BR -DZ BR BR BR BR
WDir 110 110 110 110 110
WSpd 4 4 7 7 7
WGst -- -- -- -- --

Raw TAF
KIAH 181138Z 1812/1918 33005KT P6SM SCT017 BKN027 BKN045
  FM181500 09005KT 6SM -RA BR OVC025
  PROB30 1821/1902 3SM SHRA OVC015
  FM190300 10005KT 4SM BR OVC015
  FM191000 11004KT 2SM -DZ BR OVC007
  FM191500 11007KT 6SM BR BKN010


METAR Board
Radar Display
Forecast Discussion

FOR SITUATIONAL AWARENESS. NOT TO BE USED FOR FLIGHT PLANNING PURPOSES.